Terminal Aerodrome Forecast
Issued by NWS

Home | Current Version | Previous Version | Text Only | Print | Product List | Glossary On
Versions: 1 2 3 4 5 6 7 8 9 10 11 12 13 14 15 16 17
000
FTUS44 KEPZ 041137
TAFLRU
TAF
KLRU 041137Z 0412/0512 10006KT P6SM SCT070 BKN150
     FM041400 12008KT P6SM FEW070 SCT250
     FM042200 18012KT P6SM VCTS SCT070CB BKN250=

USA.gov is the U.S. government's official web portal to all federal, state and local government web resources and services.